Pagrindinis puslapis
METAR-TAF:

METAR-TAF

Oro uostai :

Davao, Filipinai

platuma: 07-07N, ilguma: 125-39E, Aukštis: 17 m

Dabartinis oras

Ataskaita buvo paskelbta 46 minutes, ne 01:00 UTC
Vėjas 4 kt iš Vakarų/Pietvakarių, svyruoja nuo Pietų/Pietvakarių ir Vakarų
Temperatūra 29°C
Drėgmė 70%
Slėgis 1009 hPa
Matomumas 10 km arba daugiau
Išsisklaidę debesys ne aukštis 1600 ft

METAR: RPMD 260100Z 25004KT 210V280 9999 SCT016 29/23 Q1009 RMK A2980

Laikas: 09:46 (01:46 UTC)

Prognozė

Ataskaita buvo paskelbta 2 valandos ir 46 minutes, ne 23:00 UTC
Prognozė galioja nuo 26 metu 00 UTC su 26 metu 24 UTC
Vėjas 5 kt iš Šiaurės
Matomumas 10 km arba daugiau
Mažai debesys ne aukštis 1600 ft
Su prošvaistėmis ne aukštis 29000 ft
Laikinai
nuo 26 metu 00 UTC su 26 metu 06 UTC
Vėjas 6 kt iš Pietryčių
Mažai debesys ne aukštis 1600 ft
Išsisklaidę debesys ne aukštis 9000 ft

TAF: RPMD 252300Z 2600/2624 35005KT 9999 FEW016 BKN290 TEMPO 2600/2606 13006KT FEW016 SCT090

Orai ataskaitas ir orų prognozės (METAR, TAF).

turimą stotys yra geltonos ir raudonos taškus žemėlapyje.

Perkelti pele per norėdami pamatyti stoties vardą.

Tada spustelėkite, norėdami matyti oro stebėjimo ir prognozės.

Norėdami pakeisti žemėlapį: spustelėkite ant žalios mygtukų su juodo kryžiaus žemyn,; žalią mygtuką su brūkšneliu, jei norite nutolinti; arba žalių rodyklių gretimoms žemėlapius.


METAR-TAF: